Time;durP1;ratioP1;P1;durP2;ratioP2;P2;SDS_P1;SDS_P2;PMS_P1;PMS_P2;Temp;Humidity;BMP_temperature;BMP_pressure;BME280_temperature;BME280_humidity;BME280_pressure;Samples;Min_cycle;Max_cycle;Signal;HPM_P1;HPM_P2
2021/08/27 00:02:02;;;;;;;374.27;357.90;;;10.60;99.90;;;;;;4916978;29;20956;-82
2021/08/27 00:04:30;;;;;;;369.23;352.67;;;10.70;99.90;;;;;;4916900;29;20469;-82
2021/08/27 00:06:57;;;;;;;377.93;361.80;;;10.80;99.90;;;;;;4916828;29;20852;-82
2021/08/27 00:09:24;;;;;;;373.03;357.03;;;10.90;99.90;;;;;;4915735;29;20500;-82
2021/08/27 00:11:53;;;;;;;372.50;356.30;;;11.00;99.90;;;;;;4916828;29;20461;-82
2021/08/27 00:14:20;;;;;;;369.00;352.53;;;11.00;99.90;;;;;;4916979;29;20469;-82
2021/08/27 00:16:47;;;;;;;370.77;354.10;;;11.10;99.90;;;;;;4916753;29;20462;-84
2021/08/27 00:19:16;;;;;;;368.93;352.73;;;11.20;99.90;;;;;;4916804;29;20529;-82
2021/08/27 00:21:43;;;;;;;366.13;350.23;;;11.30;99.90;;;;;;4916590;29;20551;-82
2021/08/27 00:24:09;;;;;;;364.73;348.87;;;11.40;99.90;;;;;;4915565;29;20864;-83
2021/08/27 00:26:36;;;;;;;365.07;349.17;;;11.50;99.90;;;;;;4916460;29;20493;-83
2021/08/27 00:29:04;;;;;;;369.60;353.43;;;11.60;99.90;;;;;;4918224;29;20823;-81
2021/08/27 00:31:31;;;;;;;356.23;340.73;;;11.70;99.90;;;;;;4920554;29;20522;-82
2021/08/27 00:33:59;;;;;;;353.27;337.80;;;11.70;99.90;;;;;;4920475;29;20468;-81
2021/08/27 00:36:27;;;;;;;347.63;332.60;;;11.80;99.90;;;;;;4920564;29;20554;-83
2021/08/27 00:38:56;;;;;;;350.93;335.33;;;11.80;99.90;;;;;;4920142;29;20459;-81
2021/08/27 00:41:22;;;;;;;354.33;338.93;;;11.80;99.90;;;;;;4920286;29;20466;-83
2021/08/27 00:43:49;;;;;;;335.37;320.60;;;11.80;99.90;;;;;;4920380;29;20472;-82
2021/08/27 00:46:16;;;;;;;334.60;320.20;;;11.90;99.90;;;;;;4920318;29;20542;-82
2021/08/27 00:48:44;;;;;;;333.93;319.50;;;11.90;99.90;;;;;;4920113;29;20470;-81
2021/08/27 00:51:14;;;;;;;326.53;312.73;;;11.90;99.90;;;;;;4920146;29;20494;-83
2021/08/27 00:53:43;;;;;;;313.60;300.47;;;12.00;99.90;;;;;;4920165;29;20553;-81
2021/08/27 00:56:13;;;;;;;294.80;282.20;;;11.90;99.90;;;;;;4918916;29;20862;-82
2021/08/27 00:58:40;;;;;;;286.20;273.47;;;12.00;99.90;;;;;;4920020;29;20965;-83
2021/08/27 01:01:07;;;;;;;274.63;262.30;;;12.00;99.90;;;;;;4919893;29;20468;-82
2021/08/27 01:03:33;;;;;;;254.07;243.10;;;12.00;99.90;;;;;;4919930;29;20490;-83
2021/08/27 01:06:07;;;;;;;241.47;231.03;;;12.10;99.90;;;;;;4919969;29;20969;-83
2021/08/27 01:08:39;;;;;;;241.03;230.43;;;12.10;99.90;;;;;;4919942;29;20455;-82
2021/08/27 01:11:13;;;;;;;229.60;219.90;;;12.10;99.90;;;;;;4918508;29;21028;-83
2021/08/27 01:13:46;;;;;;;230.23;220.33;;;12.10;99.90;;;;;;4919750;29;20486;-83
2021/08/27 01:16:18;;;;;;;232.37;222.10;;;12.20;99.90;;;;;;4919947;29;20459;-83
2021/08/27 01:18:51;;;;;;;230.30;220.00;;;12.00;99.90;;;;;;4919766;29;20462;-81
2021/08/27 01:21:47;;;;;;;229.37;219.10;;;12.10;99.90;;;;;;4919692;29;20477;-83
2021/08/27 01:24:14;;;;;;;215.77;205.90;;;12.00;99.90;;;;;;4918549;29;20555;-82
2021/08/27 01:26:49;;;;;;;209.93;200.40;;;11.90;99.90;;;;;;4919471;29;20573;-82
2021/08/27 01:29:22;;;;;;;211.43;201.80;;;11.90;99.90;;;;;;4919592;29;20500;-84
2021/08/27 01:31:57;;;;;;;208.47;199.33;;;11.80;99.90;;;;;;4919468;29;20498;-82
2021/08/27 01:34:34;;;;;;;210.97;201.93;;;11.70;99.90;;;;;;4919412;29;20469;-82
2021/08/27 01:37:01;;;;;;;219.43;209.93;;;11.70;99.90;;;;;;4919511;29;20464;-80
2021/08/27 01:39:33;;;;;;;225.17;215.47;;;11.60;99.90;;;;;;4918279;29;20545;-83
2021/08/27 01:42:02;;;;;;;236.03;225.60;;;11.50;99.90;;;;;;4919289;29;20473;-82
2021/08/27 01:44:29;;;;;;;245.30;234.70;;;11.40;99.90;;;;;;4919341;29;20553;-82
2021/08/27 01:46:59;;;;;;;263.87;252.47;;;11.40;99.90;;;;;;4919273;29;20973;-81
2021/08/27 01:49:28;;;;;;;268.80;257.07;;;11.40;99.90;;;;;;4919235;29;20909;-82
2021/08/27 01:51:57;;;;;;;269.93;257.63;;;11.40;99.90;;;;;;4919285;29;20489;-83
2021/08/27 01:54:24;;;;;;;276.43;264.47;;;11.40;99.90;;;;;;4918247;29;20461;-82
2021/08/27 01:56:53;;;;;;;291.43;278.70;;;11.30;99.90;;;;;;4919143;29;20513;-82
2021/08/27 01:59:21;;;;;;;292.93;279.93;;;11.40;99.90;;;;;;4919007;29;20555;-81
2021/08/27 02:01:48;;;;;;;293.57;280.07;;;11.40;99.90;;;;;;4918876;29;20465;-81
2021/08/27 02:04:18;;;;;;;297.90;284.47;;;11.40;99.90;;;;;;4918903;29;20888;-83
2021/08/27 02:06:47;;;;;;;304.17;291.07;;;11.40;99.90;;;;;;4918962;29;20458;-82
2021/08/27 02:09:16;;;;;;;305.00;290.97;;;11.40;99.90;;;;;;4917700;29;21021;-82
2021/08/27 02:11:43;;;;;;;302.57;289.07;;;11.30;99.90;;;;;;4918690;29;20529;-82
2021/08/27 02:14:10;;;;;;;305.23;292.10;;;11.40;99.90;;;;;;4918737;29;20500;-83
2021/08/27 02:16:38;;;;;;;308.10;294.80;;;11.30;99.90;;;;;;4918717;29;20454;-82
2021/08/27 02:19:05;;;;;;;310.10;296.20;;;11.30;99.90;;;;;;4918664;29;20459;-81
2021/08/27 02:21:35;;;;;;;316.50;302.70;;;11.40;99.90;;;;;;4918605;29;20479;-83
2021/08/27 02:24:09;;;;;;;317.77;303.37;;;11.30;99.90;;;;;;4917640;29;20460;-82
2021/08/27 02:26:38;;;;;;;322.50;308.50;;;11.40;99.90;;;;;;4918338;29;20850;-83
2021/08/27 02:29:05;;;;;;;314.30;300.20;;;11.30;99.90;;;;;;4918294;29;20458;-82
2021/08/27 02:31:34;;;;;;;323.53;308.57;;;11.30;99.90;;;;;;4920263;29;20598;-82
2021/08/27 02:34:01;;;;;;;324.43;309.73;;;11.30;99.90;;;;;;4918464;29;20462;-81
2021/08/27 02:36:29;;;;;;;325.93;311.77;;;11.30;99.90;;;;;;4918304;29;20524;-81
2021/08/27 02:38:59;;;;;;;331.83;317.10;;;11.30;99.90;;;;;;4918259;29;20463;-80
2021/08/27 02:41:28;;;;;;;333.37;318.67;;;11.30;99.90;;;;;;4918228;29;20516;-82
2021/08/27 02:43:55;;;;;;;332.17;315.30;;;11.30;99.90;;;;;;4918341;29;20465;-82
2021/08/27 02:46:21;;;;;;;328.00;313.40;;;11.40;99.90;;;;;;4918155;29;20997;-83
2021/08/27 02:48:52;;;;;;;341.97;327.17;;;11.50;99.90;;;;;;4918272;29;20545;-81
2021/08/27 02:51:24;;;;;;;337.50;322.40;;;11.60;99.90;;;;;;4917712;29;20490;-83
2021/08/27 02:53:53;;;;;;;332.43;317.53;;;11.70;99.90;;;;;;4917524;29;20466;-81
2021/08/27 02:56:25;;;;;;;334.60;319.17;;;11.80;99.90;;;;;;4917996;29;20502;-82
2021/08/27 02:58:57;;;;;;;337.80;322.27;;;11.90;99.90;;;;;;4918164;29;20838;-82
2021/08/27 03:01:35;;;;;;;327.57;312.00;;;11.90;99.90;;;;;;4918118;29;20571;-83
2021/08/27 03:04:07;;;;;;;321.13;306.37;;;11.90;99.90;;;;;;4918008;29;20460;-82
2021/08/27 03:06:41;;;;;;;310.20;296.30;;;11.90;99.90;;;;;;4917818;29;20504;-82
2021/08/27 03:09:10;;;;;;;308.07;293.33;;;11.90;99.90;;;;;;4916617;29;20553;-82
2021/08/27 03:11:44;;;;;;;299.33;286.07;;;11.90;99.90;;;;;;4917789;29;20989;-84
2021/08/27 03:14:15;;;;;;;300.57;287.07;;;12.00;99.90;;;;;;4917595;29;20488;-84
2021/08/27 03:16:47;;;;;;;284.50;272.00;;;12.00;99.90;;;;;;4917469;29;20945;-82
2021/08/27 03:19:20;;;;;;;277.20;264.70;;;11.90;99.90;;;;;;4917517;29;20547;-82
2021/08/27 03:21:53;;;;;;;273.70;261.20;;;11.90;99.90;;;;;;4917604;29;20550;-82
2021/08/27 03:24:28;;;;;;;272.10;259.83;;;11.90;99.90;;;;;;4916429;29;20475;-83
2021/08/27 03:27:00;;;;;;;281.43;268.77;;;11.90;99.90;;;;;;4917304;29;20526;-82
2021/08/27 03:29:38;;;;;;;285.07;272.73;;;12.00;99.90;;;;;;4917524;29;20520;-82
2021/08/27 03:32:06;;;;;;;276.10;264.00;;;11.90;99.90;;;;;;4917269;29;20559;-82
2021/08/27 03:34:35;;;;;;;284.90;272.47;;;11.90;99.90;;;;;;4917303;29;20474;-85
2021/08/27 03:37:03;;;;;;;284.67;272.10;;;12.00;99.90;;;;;;4917316;29;20523;-84
2021/08/27 03:39:31;;;;;;;280.43;267.87;;;12.10;99.90;;;;;;4916406;29;20495;-84
2021/08/27 03:42:02;;;;;;;288.50;275.60;;;12.10;99.90;;;;;;4917168;29;20812;-83
2021/08/27 03:44:31;;;;;;;283.77;270.23;;;12.20;99.90;;;;;;4917188;29;20468;-83
2021/08/27 03:46:59;;;;;;;273.70;261.70;;;12.20;99.90;;;;;;4917039;29;20467;-84
2021/08/27 03:49:28;;;;;;;270.20;257.60;;;12.20;99.90;;;;;;4917220;29;20543;-84
2021/08/27 03:51:56;;;;;;;262.77;251.20;;;12.20;99.90;;;;;;4916981;29;20492;-83
2021/08/27 03:54:23;;;;;;;254.83;243.57;;;12.30;99.90;;;;;;4915792;29;20464;-85
2021/08/27 03:56:51;;;;;;;241.97;230.93;;;12.30;99.90;;;;;;4916931;29;20517;-84
2021/08/27 03:59:20;;;;;;;220.97;210.47;;;12.30;99.90;;;;;;4917128;29;20451;-85
2021/08/27 04:01:49;;;;;;;214.10;204.40;;;12.20;99.90;;;;;;4916977;29;20526;-84
2021/08/27 04:04:20;;;;;;;206.57;196.83;;;12.20;99.90;;;;;;4916166;29;20461;-83
2021/08/27 04:06:54;;;;;;;203.53;193.57;;;12.20;99.90;;;;;;4916781;29;20882;-84
2021/08/27 04:09:21;;;;;;;215.70;206.00;;;12.20;99.90;;;;;;4915766;29;21004;-82
2021/08/27 04:11:48;;;;;;;208.73;198.57;;;12.20;99.90;;;;;;4916792;29;20496;-84
2021/08/27 04:14:17;;;;;;;199.00;189.60;;;12.20;99.90;;;;;;4916800;29;20475;-85
2021/08/27 04:16:44;;;;;;;213.50;203.17;;;12.20;99.90;;;;;;4916794;29;20549;-83
2021/08/27 04:19:12;;;;;;;210.83;201.23;;;12.20;99.90;;;;;;4916597;29;20479;-83
2021/08/27 04:21:39;;;;;;;206.77;196.93;;;12.20;99.90;;;;;;4916679;29;20499;-83
2021/08/27 04:24:06;;;;;;;205.47;195.97;;;12.20;99.90;;;;;;4915490;29;20462;-82
2021/08/27 04:26:34;;;;;;;207.13;197.63;;;12.30;99.90;;;;;;4916448;29;20580;-81
2021/08/27 04:29:04;;;;;;;203.73;193.93;;;12.30;99.90;;;;;;4916609;29;20471;-84
2021/08/27 04:31:33;;;;;;;203.00;192.87;;;12.30;99.90;;;;;;4916671;29;20487;-83
2021/08/27 04:34:00;;;;;;;200.77;191.10;;;12.20;99.90;;;;;;4916731;29;20452;-84
2021/08/27 04:36:29;;;;;;;208.80;198.70;;;12.30;99.90;;;;;;4916549;29;20461;-82
2021/08/27 04:38:56;;;;;;;197.17;186.93;;;12.30;99.90;;;;;;4915792;29;20484;-82
2021/08/27 04:41:23;;;;;;;197.13;187.50;;;12.40;99.90;;;;;;4916546;29;20968;-83
2021/08/27 04:43:50;;;;;;;195.30;185.30;;;12.40;99.90;;;;;;4916620;29;20472;-84
2021/08/27 04:46:17;;;;;;;193.80;184.07;;;12.40;99.90;;;;;;4916666;29;20546;-83
2021/08/27 04:48:46;;;;;;;183.90;174.93;;;12.40;99.90;;;;;;4916449;29;20465;-84
2021/08/27 04:51:13;;;;;;;177.70;169.10;;;12.40;99.90;;;;;;4916497;29;20483;-82
2021/08/27 04:53:41;;;;;;;168.03;159.20;;;12.40;99.90;;;;;;4916577;29;20492;-82
2021/08/27 04:56:08;;;;;;;172.40;164.00;;;12.50;99.90;;;;;;4915438;29;20544;-84
2021/08/27 04:58:37;;;;;;;175.97;167.10;;;12.50;99.90;;;;;;4916506;29;20467;-84
2021/08/27 05:01:08;;;;;;;182.77;173.67;;;12.40;99.90;;;;;;4916173;29;20457;-83
2021/08/27 05:03:38;;;;;;;191.80;182.20;;;12.50;99.90;;;;;;4916446;29;20459;-82
2021/08/27 05:06:08;;;;;;;187.77;178.67;;;12.50;99.90;;;;;;4916356;29;20456;-82
2021/08/27 05:08:34;;;;;;;192.80;182.80;;;12.50;99.90;;;;;;4916219;29;20456;-82
2021/08/27 05:11:06;;;;;;;194.40;185.00;;;12.50;99.90;;;;;;4915428;29;20567;-82
2021/08/27 05:13:33;;;;;;;194.83;185.47;;;12.50;99.90;;;;;;4916137;29;20472;-81
2021/08/27 05:15:59;;;;;;;184.80;175.67;;;12.60;99.90;;;;;;4919215;29;20467;-84
2021/08/27 05:18:29;;;;;;;183.77;174.50;;;12.50;99.90;;;;;;4919843;29;20535;-82
2021/08/27 05:20:56;;;;;;;187.90;178.50;;;12.50;99.90;;;;;;4919767;29;20518;-84
2021/08/27 05:23:23;;;;;;;187.63;178.27;;;12.40;99.90;;;;;;4919747;29;20460;-84
2021/08/27 05:25:52;;;;;;;190.23;180.77;;;12.40;99.90;;;;;;4918444;29;20575;-85
2021/08/27 05:28:20;;;;;;;199.60;189.87;;;12.30;99.90;;;;;;4919536;29;20520;-82
2021/08/27 05:30:49;;;;;;;203.90;193.20;;;12.30;99.90;;;;;;4919651;29;20459;-84
2021/08/27 05:33:18;;;;;;;207.27;197.17;;;12.40;99.90;;;;;;4919435;29;20532;-82
2021/08/27 05:35:46;;;;;;;206.57;196.57;;;12.50;99.90;;;;;;4919542;29;20814;-84
2021/08/27 05:38:14;;;;;;;189.97;180.10;;;12.60;99.90;;;;;;4919456;29;20531;-82
2021/08/27 05:40:43;;;;;;;173.00;164.40;;;12.70;99.90;;;;;;4918069;29;20464;-82
2021/08/27 05:43:10;;;;;;;169.97;161.00;;;12.80;99.90;;;;;;4919267;29;20547;-84
2021/08/27 05:45:40;;;;;;;158.50;150.53;;;12.90;99.90;;;;;;4919341;29;20465;-83
2021/08/27 05:48:08;;;;;;;140.10;133.57;;;13.00;99.90;;;;;;4919358;29;21029;-83
2021/08/27 05:50:35;;;;;;;139.00;132.40;;;13.00;99.90;;;;;;4919268;29;20460;-83
2021/08/27 05:53:02;;;;;;;124.33;118.33;;;13.10;99.90;;;;;;4919258;29;20924;-82
2021/08/27 05:55:29;;;;;;;120.83;115.23;;;13.10;99.90;;;;;;4918254;29;20485;-82
2021/08/27 05:58:02;;;;;;;116.93;111.40;;;13.10;99.90;;;;;;4919026;29;20552;-82
2021/08/27 06:00:29;;;;;;;115.10;108.80;;;13.20;99.90;;;;;;4919065;29;20458;-84
2021/08/27 06:02:58;;;;;;;103.00;98.60;;;13.20;99.90;;;;;;4918762;29;20516;-84
2021/08/27 06:05:24;;;;;;;102.20;97.07;;;13.30;99.90;;;;;;4918748;29;20539;-83
2021/08/27 06:07:51;;;;;;;110.53;105.23;;;13.30;99.90;;;;;;4918063;29;20551;-83
2021/08/27 06:10:18;;;;;;;110.50;105.30;;;13.50;99.90;;;;;;4917468;29;20945;-83
2021/08/27 06:12:45;;;;;;;98.00;93.40;;;13.70;99.90;;;;;;4918613;29;20500;-82
2021/08/27 06:15:19;;;;;;;92.40;88.60;;;13.60;99.90;;;;;;4918656;29;20457;-83
2021/08/27 06:17:46;;;;;;;84.17;80.10;;;13.70;99.90;;;;;;4918591;29;20461;-83
2021/08/27 06:20:15;;;;;;;72.10;68.87;;;13.80;99.90;;;;;;4918922;29;20541;-82
2021/08/27 06:22:46;;;;;;;73.83;70.60;;;13.70;99.90;;;;;;4918469;29;20561;-83
2021/08/27 06:25:13;;;;;;;74.87;71.87;;;13.70;99.90;;;;;;4917340;29;20610;-84
2021/08/27 06:27:42;;;;;;;83.87;80.40;;;13.70;99.90;;;;;;4917697;29;20549;-85
2021/08/27 06:30:09;;;;;;;69.40;66.00;;;13.80;99.90;;;;;;4918382;29;20465;-87
2021/08/27 06:32:36;;;;;;;68.30;65.00;;;13.80;99.90;;;;;;4918290;29;20496;-86
2021/08/27 06:35:04;;;;;;;62.73;59.40;;;13.90;99.90;;;;;;4918499;29;20867;-86
2021/08/27 06:40:20;;;;;;;56.10;53.50;;;13.90;99.90;;;;;;4917322;29;20449;-83
2021/08/27 06:42:50;;;;;;;45.67;43.70;;;14.00;99.90;;;;;;4918159;29;20501;-89
2021/08/27 06:45:19;;;;;;;49.40;47.23;;;13.90;99.90;;;;;;4918082;29;20938;-82
2021/08/27 06:47:46;;;;;;;43.97;42.07;;;13.90;99.90;;;;;;4918001;29;21021;-88
2021/08/27 06:50:21;;;;;;;42.40;40.20;;;14.00;99.90;;;;;;4917817;29;20465;-85
2021/08/27 06:52:53;;;;;;;46.43;43.53;;;14.00;99.90;;;;;;4923104;29;20497;-84
2021/08/27 06:55:30;;;;;;;43.80;41.87;;;14.00;99.90;;;;;;4952314;29;20546;-84
2021/08/27 06:58:02;;;;;;;53.47;50.70;;;14.10;99.90;;;;;;4954718;29;20511;-86
2021/08/27 07:00:34;;;;;;;34.17;32.40;;;14.20;99.90;;;;;;4954740;29;20975;-85
2021/08/27 07:03:16;;;;;;;42.00;40.30;;;14.30;99.90;;;;;;4954226;29;20898;-86
2021/08/27 07:05:45;;;;;;;43.70;41.70;;;14.40;99.90;;;;;;4954575;29;20460;-87
2021/08/27 07:08:28;;;;;;;35.63;33.90;;;14.40;99.90;;;;;;4954690;29;20456;-86
2021/08/27 07:11:16;;;;;;;40.53;38.53;;;14.30;99.90;;;;;;4953672;29;20467;-85
2021/08/27 07:13:50;;;;;;;41.57;39.30;;;14.30;99.90;;;;;;4954508;29;20487;-86
2021/08/27 07:16:19;;;;;;;37.13;35.57;;;14.40;99.90;;;;;;4954354;29;20561;-86
2021/08/27 07:19:04;;;;;;;33.17;31.37;;;14.50;99.90;;;;;;4936099;29;20481;-85
2021/08/27 07:21:44;;;;;;;21.47;20.17;;;14.60;99.90;;;;;;4934542;29;20944;-87
2021/08/27 07:24:23;;;;;;;18.07;17.17;;;14.70;99.70;;;;;;4933913;29;21270;-85
2021/08/27 07:27:11;;;;;;;21.97;20.60;;;14.80;99.90;;;;;;4934962;29;20476;-86
2021/08/27 07:32:46;;;;;;;19.13;17.83;;;14.80;99.40;;;;;;4934433;29;20484;-87
2021/08/27 07:39:21;;;;;;;18.70;17.20;;;14.70;98.30;;;;;;4799845;29;20869;-86
2021/08/27 07:42:36;;;;;;;20.33;18.97;;;14.70;99.60;;;;;;4922523;29;20540;-87
2021/08/27 07:45:33;;;;;;;13.30;12.20;;;14.80;98.70;;;;;;4876262;29;20471;-86
2021/08/27 07:51:05;;;;;;;20.77;19.27;;;14.80;98.20;;;;;;4905151;29;20448;-87
2021/08/27 07:53:44;;;;;;;14.97;14.07;;;14.80;99.90;;;;;;4935761;29;20575;-86
2021/08/27 07:56:14;;;;;;;17.77;16.48;;;14.60;99.40;;;;;;4934438;29;20434;-85
2021/08/27 07:58:41;;;;;;;19.30;18.07;;;14.70;99.90;;;;;;4935752;29;20264;-86
2021/08/27 08:01:12;;;;;;;24.00;22.90;;;14.80;99.90;;;;;;4935433;29;20460;-87
2021/08/27 08:03:42;;;;;;;19.20;18.17;;;14.80;99.90;;;;;;4935734;29;21039;-86
2021/08/27 08:06:12;;;;;;;16.07;14.83;;;14.90;99.70;;;;;;4935882;29;20461;-87
2021/08/27 08:08:45;;;;;;;12.50;9.77;;;15.10;99.70;;;;;;4935545;29;20465;-85
2021/08/27 08:11:18;;;;;;;9.80;7.90;;;15.20;97.90;;;;;;4934607;29;20466;-86
2021/08/27 08:13:50;;;;;;;9.23;5.30;;;15.40;96.70;;;;;;4935603;29;20865;-87
2021/08/27 08:16:33;;;;;;;8.77;8.00;;;15.30;94.90;;;;;;4935689;29;20469;-86
2021/08/27 08:19:09;;;;;;;7.90;7.10;;;15.30;97.40;;;;;;4935736;29;20991;-85
2021/08/27 08:21:45;;;;;;;5.77;5.37;;;15.20;96.10;;;;;;4935693;29;20824;-88
2021/08/27 08:24:14;;;;;;;7.03;6.33;;;15.20;95.40;;;;;;4934453;29;20966;-86
2021/08/27 08:26:48;;;;;;;11.07;6.60;;;15.50;95.60;;;;;;4935536;29;20838;-88
2021/08/27 08:29:37;;;;;;;4.03;3.40;;;16.00;92.60;;;;;;4935418;29;20499;-86
2021/08/27 08:54:15;;;;;;;4.80;2.00;;;16.90;75.30;;;;;;4849108;29;20507;-89
2021/08/27 08:56:46;;;;;;;10.83;3.00;;;17.20;75.60;;;;;;4861645;29;20476;-89
2021/08/27 09:09:00;;;;;;;;;;;;;;;;;;;;;
2021/08/27 09:22:11;;;;;;;;;;;;;;;;;;;;;
2021/08/27 09:31:15;;;;;;;4.53;1.73;;;17.00;67.70;;;;;;4871113;29;20995;-86
2021/08/27 09:33:57;;;;;;;5.07;2.33;;;17.30;66.70;;;;;;4919494;29;20485;-88
2021/08/27 09:36:43;;;;;;;9.67;2.00;;;17.60;65.90;;;;;;4919391;29;20956;-89
2021/08/27 09:39:45;;;;;;;4.07;1.70;;;18.30;65.90;;;;;;4918783;29;20874;-88
2021/08/27 09:53:01;;;;;;;8.50;1.53;;;19.10;56.00;;;;;;4782587;29;20460;-89
2021/08/27 10:04:29;;;;;;;;;;;;;;;;;;;;;
2021/08/27 10:07:32;;;;;;;8.63;1.60;;;18.20;53.10;;;;;;4775614;29;20536;-86
2021/08/27 10:23:42;;;;;;;7.33;1.53;;;19.70;50.60;;;;;;4748612;29;20466;-87
2021/08/27 10:41:27;;;;;;;7.87;1.87;;;18.90;49.00;;;;;;4741206;29;20952;-87
2021/08/27 10:51:42;;;;;;;4.07;1.30;;;20.30;39.20;;;;;;4799155;29;20533;-87
2021/08/27 10:54:42;;;;;;;3.73;1.03;;;19.90;39.40;;;;;;4915604;29;20628;-88
2021/08/27 11:01:13;;;;;;;3.90;1.37;;;19.00;48.70;;;;;;4932067;29;20826;-87
2021/08/27 11:04:23;;;;;;;;;;;;;;;;;;;;;
2021/08/27 11:07:08;;;;;;;3.77;1.33;;;19.00;39.80;;;;;;4935598;29;20461;-87
2021/08/27 11:13:30;;;;;;;5.80;1.50;;;19.60;39.50;;;;;;4922227;29;20448;-86
2021/08/27 11:19:50;;;;;;;;;;;;;;;;;;;;;
2021/08/27 11:25:29;;;;;;;5.53;1.60;;;16.40;71.20;;;;;;4932862;29;20893;-88
2021/08/27 11:28:44;;;;;;;8.97;2.50;;;16.40;70.80;;;;;;4935353;29;20469;-87
2021/08/27 11:34:12;;;;;;;4.93;2.40;;;16.70;68.50;;;;;;4932665;29;20492;-85
2021/08/27 11:37:22;;;;;;;4.60;2.40;;;17.00;71.30;;;;;;4934915;29;20460;-84
2021/08/27 11:39:54;;;;;;;6.87;1.60;;;17.90;65.10;;;;;;4838011;29;20993;-85
2021/08/27 11:42:24;;;;;;;3.40;1.60;;;19.40;52.80;;;;;;4911829;29;20457;-87
2021/08/27 11:45:08;;;;;;;6.73;1.60;;;19.70;47.00;;;;;;4935424;29;20463;-85
2021/08/27 11:47:55;;;;;;;3.40;1.13;;;19.70;52.90;;;;;;4933614;29;20568;-87
2021/08/27 11:53:56;;;;;;;3.80;1.20;;;20.00;44.40;;;;;;4921954;29;20491;-87
2021/08/27 11:56:59;;;;;;;5.30;1.47;;;19.90;41.30;;;;;;4875172;29;20578;-87
2021/08/27 12:03:01;;;;;;;8.23;1.20;;;19.80;40.00;;;;;;4788862;29;20478;-87
2021/08/27 12:05:34;;;;;;;4.10;1.20;;;18.40;45.60;;;;;;4876920;29;20463;-84
2021/08/27 12:08:15;;;;;;;3.40;1.40;;;17.60;51.00;;;;;;4916598;29;20492;-87
2021/08/27 12:11:01;;;;;;;3.93;1.60;;;16.90;61.20;;;;;;4934283;29;20483;-86
2021/08/27 12:13:48;;;;;;;;;;;;;;;;;;;;;
2021/08/27 12:16:17;;;;;;;5.63;2.63;;;16.30;81.90;;;;;;4934899;29;20460;-87
2021/08/27 12:19:01;;;;;;;;;;;;;;;;;;;;;
2021/08/27 12:21:48;;;;;;;4.33;1.67;;;16.70;83.10;;;;;;4934945;29;20957;-87
2021/08/27 12:24:39;;;;;;;5.10;2.17;;;17.00;70.90;;;;;;4932897;29;20885;-85
2021/08/27 12:27:19;;;;;;;4.90;1.67;;;17.40;72.20;;;;;;4934523;29;20532;-86
2021/08/27 12:33:06;;;;;;;6.13;1.70;;;18.00;66.00;;;;;;4924581;29;20448;-84
2021/08/27 12:38:46;;;;;;;3.90;1.33;;;19.70;50.80;;;;;;4934435;29;20509;-88
2021/08/27 12:41:21;;;;;;;6.37;2.10;;;19.10;52.40;;;;;;4934555;29;20524;-84
2021/08/27 12:44:03;;;;;;;6.70;2.27;;;18.60;59.60;;;;;;4935539;29;20894;-85
2021/08/27 12:46:33;;;;;;;4.80;2.97;;;17.30;83.50;;;;;;4935579;29;20888;-86
2021/08/27 12:49:13;;;;;;;5.57;3.27;;;16.80;99.90;;;;;;4935439;29;20456;-87
2021/08/27 12:51:42;;;;;;;4.27;3.47;;;17.10;99.90;;;;;;4935446;29;20516;-87
2021/08/27 12:54:11;;;;;;;5.40;4.13;;;17.30;91.10;;;;;;4935527;29;20880;-86
2021/08/27 12:56:43;;;;;;;5.60;2.30;;;17.50;91.70;;;;;;4935097;29;20495;-84
2021/08/27 12:59:23;;;;;;;11.10;2.43;;;17.20;81.20;;;;;;4935600;29;20460;-87
2021/08/27 13:01:50;;;;;;;13.63;5.90;;;17.00;85.90;;;;;;4935570;29;20625;-86
2021/08/27 13:04:22;;;;;;;8.67;8.07;;;16.80;91.60;;;;;;4935356;29;20549;-86
2021/08/27 13:06:54;;;;;;;11.10;7.83;;;16.80;94.70;;;;;;4935572;29;20537;-86
2021/08/27 13:09:40;;;;;;;11.20;10.40;;;17.00;91.90;;;;;;4934034;29;20476;-89
2021/08/27 13:12:17;;;;;;;5.00;4.30;;;17.50;92.40;;;;;;4935524;29;20479;-86
2021/08/27 13:15:00;;;;;;;4.43;3.20;;;17.80;84.90;;;;;;4935184;29;20480;-85
2021/08/27 13:17:53;;;;;;;5.20;3.80;;;17.80;84.10;;;;;;4935465;29;20988;-87
2021/08/27 13:24:06;;;;;;;6.03;2.63;;;18.50;76.70;;;;;;4935231;29;20475;-84
2021/08/27 13:30:37;;;;;;;4.87;1.87;;;19.90;62.30;;;;;;4894845;29;20462;-84
2021/08/27 13:33:21;;;;;;;;;;;;;;;;;;;;;
2021/08/27 13:39:35;;;;;;;;;;;;;;;;;;;;;
2021/08/27 13:42:15;;;;;;;;;;;;;;;;;;;;;
2021/08/27 13:53:05;;;;;;;;;;;;;;;;;;;;;
2021/08/27 14:17:29;;;;;;;;;;;;;;;;;;;;;
2021/08/27 14:20:46;;;;;;;;;;;;;;;;;;;;;
2021/08/27 14:23:17;;;;;;;4.10;1.30;;;19.00;44.10;;;;;;4937376;29;20968;-84
2021/08/27 14:25:53;;;;;;;8.00;2.10;;;17.80;74.20;;;;;;4936541;29;20464;-85
2021/08/27 14:28:22;;;;;;;4.77;2.60;;;16.90;90.60;;;;;;4937517;29;20456;-84
2021/08/27 14:30:52;;;;;;;6.90;4.03;;;15.70;99.90;;;;;;4937319;29;20490;-87
2021/08/27 14:33:25;;;;;;;5.80;4.87;;;15.00;99.90;;;;;;4937393;29;20463;-88
2021/08/27 14:36:01;;;;;;;6.77;6.17;;;14.80;99.90;;;;;;4937311;29;20464;-86
2021/08/27 14:38:35;;;;;;;10.07;9.27;;;14.60;99.90;;;;;;4937378;29;20461;-88
2021/08/27 14:41:26;;;;;;;4.47;4.07;;;14.60;99.90;;;;;;4936510;29;20463;-89
2021/08/27 14:44:51;;;;;;;11.77;11.07;;;14.50;99.90;;;;;;4937197;29;20835;-87
2021/08/27 14:50:57;;;;;;;30.43;28.83;;;14.50;99.90;;;;;;4819453;29;20956;-91
2021/08/27 14:54:06;;;;;;;;;;;;;;;;;;;;;
2021/08/27 14:56:43;;;;;;;76.27;72.37;;;15.10;99.90;;;;;;4756702;29;20951;-81
2021/08/27 14:59:10;;;;;;;66.83;63.83;;;15.50;99.90;;;;;;4867754;29;20512;-83
2021/08/27 15:01:37;;;;;;;79.17;75.47;;;15.80;99.90;;;;;;4936978;29;20464;-83
2021/08/27 15:04:04;;;;;;;67.30;64.03;;;16.20;99.90;;;;;;4937097;29;20539;-85
2021/08/27 15:06:31;;;;;;;66.90;64.10;;;16.20;99.90;;;;;;4937190;29;20953;-94
2021/08/27 15:08:58;;;;;;;55.03;52.53;;;16.70;99.90;;;;;;4937120;29;20544;-92
2021/08/27 15:11:25;;;;;;;46.60;44.10;;;17.60;99.90;;;;;;4936384;29;20563;-89
2021/08/27 15:13:53;;;;;;;26.47;24.73;;;18.30;99.90;;;;;;4937527;29;20551;-91
2021/08/27 15:16:20;;;;;;;15.43;14.33;;;18.80;93.10;;;;;;4938247;29;20492;-92
2021/08/27 15:18:47;;;;;;;10.30;9.30;;;19.30;87.80;;;;;;4938452;29;20984;-92
2021/08/27 15:21:16;;;;;;;7.50;4.33;;;19.40;85.50;;;;;;4932105;29;20458;-91
2021/08/27 15:23:43;;;;;;;10.93;4.33;;;18.70;79.60;;;;;;4933168;29;20946;-80
2021/08/27 15:26:10;;;;;;;8.67;7.97;;;18.20;80.90;;;;;;4934109;28;20515;-85
2021/08/27 15:28:37;;;;;;;10.53;9.53;;;18.00;91.10;;;;;;4917815;29;20481;-84
2021/08/27 15:31:06;;;;;;;12.13;11.10;;;17.70;89.30;;;;;;4917675;29;20520;-87
2021/08/27 15:33:33;;;;;;;18.03;16.57;;;17.50;90.60;;;;;;4917356;29;20467;-88
2021/08/27 15:36:02;;;;;;;20.60;19.20;;;17.70;96.10;;;;;;4917209;29;20501;-77
2021/08/27 15:38:29;;;;;;;15.40;11.00;;;17.90;96.20;;;;;;4920180;29;20459;-90
2021/08/27 15:40:56;;;;;;;6.67;4.37;;;17.80;89.00;;;;;;4935495;29;20457;-89
2021/08/27 15:43:24;;;;;;;13.80;12.90;;;17.40;86.40;;;;;;4936424;29;20520;-79
2021/08/27 15:45:51;;;;;;;12.77;11.67;;;17.30;94.70;;;;;;4936458;29;20470;-80
2021/08/27 15:48:19;;;;;;;14.30;12.80;;;17.20;94.50;;;;;;4935193;29;20465;-80
2021/08/27 15:50:48;;;;;;;20.57;19.27;;;17.00;97.20;;;;;;4936075;29;20891;-93
2021/08/27 15:56:40;;;;;;;24.93;23.53;;;16.30;99.90;;;;;;4875996;29;20487;-90
2021/08/27 15:59:50;;;;;;;;;;;;;;;;;;;;;
2021/08/27 16:02:48;;;;;;;26.47;24.97;;;15.60;99.90;;;;;;4877208;29;20525;-86
2021/08/27 16:05:16;;;;;;;35.57;33.97;;;15.90;99.90;;;;;;4896704;29;20861;-85
2021/08/27 16:07:44;;;;;;;41.50;39.77;;;16.30;99.90;;;;;;4916841;29;20925;-80
2021/08/27 16:10:15;;;;;;;49.30;47.10;;;15.90;99.90;;;;;;4915228;29;20466;-94
2021/08/27 16:12:43;;;;;;;24.87;23.73;;;15.60;99.90;;;;;;4918058;29;20714;-92
2021/08/27 16:15:39;;;;;;;12.30;11.30;;;15.10;99.90;;;;;;4903997;29;20557;-94
2021/08/27 16:18:14;;;;;;;19.77;18.47;;;14.40;99.90;;;;;;4918474;29;20499;-91
2021/08/27 16:20:44;;;;;;;15.13;14.00;;;14.50;99.90;;;;;;4928502;29;20456;-93
2021/08/27 16:23:11;;;;;;;25.07;23.77;;;14.40;99.90;;;;;;4936310;29;20456;-91
2021/08/27 16:25:49;;;;;;;52.73;50.33;;;14.80;99.90;;;;;;4934661;29;20564;-87
2021/08/27 16:28:18;;;;;;;68.57;65.63;;;14.90;99.90;;;;;;4935912;29;20462;-85